sensor_id;sensor_type;location;lat;lon;timestamp;temperature;humidity
21338;DHT22;10827;50.878;4.382;2022-07-04T00:00:29;18.30;34.70
21338;DHT22;10827;50.878;4.382;2022-07-04T00:02:55;18.40;34.70
21338;DHT22;10827;50.878;4.382;2022-07-04T00:05:21;18.60;13.30
21338;DHT22;10827;50.878;4.382;2022-07-04T00:07:49;18.70;20.00
21338;DHT22;10827;50.878;4.382;2022-07-04T00:10:17;18.50;33.30
21338;DHT22;10827;50.878;4.382;2022-07-04T00:12:43;18.50;17.80
21338;DHT22;10827;50.878;4.382;2022-07-04T00:15:10;19.00;23.70
21338;DHT22;10827;50.878;4.382;2022-07-04T00:17:36;19.20;12.20
21338;DHT22;10827;50.878;4.382;2022-07-04T00:20:03;18.90;8.80
21338;DHT22;10827;50.878;4.382;2022-07-04T00:22:29;18.80;10.70
21338;DHT22;10827;50.878;4.382;2022-07-04T00:24:55;18.70;19.30
21338;DHT22;10827;50.878;4.382;2022-07-04T00:27:21;18.60;19.20
21338;DHT22;10827;50.878;4.382;2022-07-04T00:29:47;18.40;33.00
21338;DHT22;10827;50.878;4.382;2022-07-04T00:32:13;18.00;48.80
21338;DHT22;10827;50.878;4.382;2022-07-04T00:34:38;17.90;51.90
21338;DHT22;10827;50.878;4.382;2022-07-04T00:37:04;18.00;36.80
21338;DHT22;10827;50.878;4.382;2022-07-04T00:39:30;18.10;26.30
21338;DHT22;10827;50.878;4.382;2022-07-04T00:41:56;18.20;32.30
21338;DHT22;10827;50.878;4.382;2022-07-04T00:44:22;18.50;51.70
21338;DHT22;10827;50.878;4.382;2022-07-04T00:46:48;18.00;35.90
21338;DHT22;10827;50.878;4.382;2022-07-04T00:49:16;17.70;66.40
21338;DHT22;10827;50.878;4.382;2022-07-04T00:51:43;17.70;68.70
21338;DHT22;10827;50.878;4.382;2022-07-04T00:54:14;17.60;66.90
21338;DHT22;10827;50.878;4.382;2022-07-04T00:56:42;17.40;75.00
21338;DHT22;10827;50.878;4.382;2022-07-04T00:59:09;16.40;60.70
21338;DHT22;10827;50.878;4.382;2022-07-04T01:01:35;17.30;66.40
21338;DHT22;10827;50.878;4.382;2022-07-04T01:04:02;18.00;36.40
21338;DHT22;10827;50.878;4.382;2022-07-04T01:06:29;18.20;29.90
21338;DHT22;10827;50.878;4.382;2022-07-04T01:08:55;18.40;26.40
21338;DHT22;10827;50.878;4.382;2022-07-04T01:11:21;18.40;26.30
21338;DHT22;10827;50.878;4.382;2022-07-04T01:13:47;18.30;32.60
21338;DHT22;10827;50.878;4.382;2022-07-04T01:16:13;18.00;40.90
21338;DHT22;10827;50.878;4.382;2022-07-04T01:18:40;18.00;45.10
21338;DHT22;10827;50.878;4.382;2022-07-04T01:21:06;18.30;37.10
21338;DHT22;10827;50.878;4.382;2022-07-04T01:23:35;18.10;34.30
21338;DHT22;10827;50.878;4.382;2022-07-04T01:26:02;17.70;52.30
21338;DHT22;10827;50.878;4.382;2022-07-04T01:28:28;17.70;38.30
21338;DHT22;10827;50.878;4.382;2022-07-04T01:30:54;17.10;77.10
21338;DHT22;10827;50.878;4.382;2022-07-04T01:33:19;17.30;70.30
21338;DHT22;10827;50.878;4.382;2022-07-04T01:35:49;17.60;65.50
21338;DHT22;10827;50.878;4.382;2022-07-04T01:38:15;17.80;59.90
21338;DHT22;10827;50.878;4.382;2022-07-04T01:40:40;17.90;63.50
21338;DHT22;10827;50.878;4.382;2022-07-04T01:43:06;17.70;64.60
21338;DHT22;10827;50.878;4.382;2022-07-04T01:45:32;17.50;69.30
21338;DHT22;10827;50.878;4.382;2022-07-04T01:48:01;17.60;76.20
21338;DHT22;10827;50.878;4.382;2022-07-04T01:50:26;18.20;62.30
21338;DHT22;10827;50.878;4.382;2022-07-04T01:52:52;18.10;51.00
21338;DHT22;10827;50.878;4.382;2022-07-04T01:55:18;17.50;60.90
21338;DHT22;10827;50.878;4.382;2022-07-04T01:57:44;17.40;70.30
21338;DHT22;10827;50.878;4.382;2022-07-04T02:00:10;17.80;62.90
21338;DHT22;10827;50.878;4.382;2022-07-04T02:02:55;17.50;70.60
21338;DHT22;10827;50.878;4.382;2022-07-04T02:05:21;17.50;73.10
21338;DHT22;10827;50.878;4.382;2022-07-04T02:07:50;17.30;73.80
21338;DHT22;10827;50.878;4.382;2022-07-04T02:10:16;17.70;66.20
21338;DHT22;10827;50.878;4.382;2022-07-04T02:12:42;17.90;54.80
21338;DHT22;10827;50.878;4.382;2022-07-04T02:15:26;17.80;58.30
21338;DHT22;10827;50.878;4.382;2022-07-04T02:17:52;17.70;65.10
21338;DHT22;10827;50.878;4.382;2022-07-04T02:20:17;17.70;55.50
21338;DHT22;10827;50.878;4.382;2022-07-04T02:22:43;17.30;65.10
21338;DHT22;10827;50.878;4.382;2022-07-04T02:25:09;17.50;60.60
21338;DHT22;10827;50.878;4.382;2022-07-04T02:27:37;17.20;30.80
21338;DHT22;10827;50.878;4.382;2022-07-04T02:30:04;17.30;58.20
21338;DHT22;10827;50.878;4.382;2022-07-04T02:32:30;16.60;69.70
21338;DHT22;10827;50.878;4.382;2022-07-04T02:34:55;16.80;72.20
21338;DHT22;10827;50.878;4.382;2022-07-04T02:37:21;17.40;37.60
21338;DHT22;10827;50.878;4.382;2022-07-04T02:39:48;17.00;47.00
21338;DHT22;10827;50.878;4.382;2022-07-04T02:42:14;16.60;63.20
21338;DHT22;10827;50.878;4.382;2022-07-04T02:44:39;16.40;72.60
21338;DHT22;10827;50.878;4.382;2022-07-04T02:47:07;16.40;87.30
21338;DHT22;10827;50.878;4.382;2022-07-04T02:49:32;16.80;69.80
21338;DHT22;10827;50.878;4.382;2022-07-04T02:51:58;16.80;66.40
21338;DHT22;10827;50.878;4.382;2022-07-04T02:54:24;17.10;55.60
21338;DHT22;10827;50.878;4.382;2022-07-04T02:56:50;17.00;56.60
21338;DHT22;10827;50.878;4.382;2022-07-04T02:59:15;16.60;65.70
21338;DHT22;10827;50.878;4.382;2022-07-04T03:01:41;16.90;76.30
21338;DHT22;10827;50.878;4.382;2022-07-04T03:04:07;16.40;80.80
21338;DHT22;10827;50.878;4.382;2022-07-04T03:06:33;15.10;79.80
21338;DHT22;10827;50.878;4.382;2022-07-04T03:08:58;16.30;86.20
21338;DHT22;10827;50.878;4.382;2022-07-04T03:11:24;16.50;86.90
21338;DHT22;10827;50.878;4.382;2022-07-04T03:13:50;16.50;83.50
21338;DHT22;10827;50.878;4.382;2022-07-04T03:16:16;16.90;69.60
21338;DHT22;10827;50.878;4.382;2022-07-04T03:18:42;16.90;58.90
21338;DHT22;10827;50.878;4.382;2022-07-04T03:21:07;16.50;68.90
21338;DHT22;10827;50.878;4.382;2022-07-04T03:23:34;16.30;61.90
21338;DHT22;10827;50.878;4.382;2022-07-04T03:26:00;16.20;84.20
21338;DHT22;10827;50.878;4.382;2022-07-04T03:28:27;16.00;71.20
21338;DHT22;10827;50.878;4.382;2022-07-04T03:30:53;16.00;82.10
21338;DHT22;10827;50.878;4.382;2022-07-04T03:33:19;15.90;91.00
21338;DHT22;10827;50.878;4.382;2022-07-04T03:38:11;15.90;92.40
21338;DHT22;10827;50.878;4.382;2022-07-04T03:40:37;15.80;92.20
21338;DHT22;10827;50.878;4.382;2022-07-04T03:43:04;16.00;86.40
21338;DHT22;10827;50.878;4.382;2022-07-04T03:45:34;15.70;91.30
21338;DHT22;10827;50.878;4.382;2022-07-04T03:48:00;15.80;91.10
21338;DHT22;10827;50.878;4.382;2022-07-04T03:50:28;15.80;86.50
21338;DHT22;10827;50.878;4.382;2022-07-04T03:52:54;15.90;83.90
21338;DHT22;10827;50.878;4.382;2022-07-04T03:55:20;16.00;82.20
21338;DHT22;10827;50.878;4.382;2022-07-04T03:57:46;16.00;78.90
21338;DHT22;10827;50.878;4.382;2022-07-04T04:00:12;15.90;77.40
21338;DHT22;10827;50.878;4.382;2022-07-04T04:05:05;15.60;89.10
21338;DHT22;10827;50.878;4.382;2022-07-04T04:07:49;15.40;91.80
21338;DHT22;10827;50.878;4.382;2022-07-04T04:15:08;15.40;79.40
21338;DHT22;10827;50.878;4.382;2022-07-04T04:17:34;15.60;76.40
21338;DHT22;10827;50.878;4.382;2022-07-04T04:20:00;15.60;92.20
21338;DHT22;10827;50.878;4.382;2022-07-04T04:22:28;15.70;74.00
21338;DHT22;10827;50.878;4.382;2022-07-04T04:24:54;15.50;78.30
21338;DHT22;10827;50.878;4.382;2022-07-04T04:34:38;15.40;88.60
21338;DHT22;10827;50.878;4.382;2022-07-04T04:39:29;16.40;57.80
21338;DHT22;10827;50.878;4.382;2022-07-04T04:44:21;16.00;60.60
21338;DHT22;10827;50.878;4.382;2022-07-04T04:46:47;16.00;66.20
21338;DHT22;10827;50.878;4.382;2022-07-04T04:49:13;16.30;67.70
21338;DHT22;10827;50.878;4.382;2022-07-04T04:51:38;16.30;67.40
21338;DHT22;10827;50.878;4.382;2022-07-04T04:54:05;16.50;35.40
21338;DHT22;10827;50.878;4.382;2022-07-04T04:58:57;16.00;58.50
21338;DHT22;10827;50.878;4.382;2022-07-04T05:01:23;16.40;46.50
21338;DHT22;10827;50.878;4.382;2022-07-04T05:03:49;16.10;56.80
21338;DHT22;10827;50.878;4.382;2022-07-04T05:11:07;15.70;73.60
21338;DHT22;10827;50.878;4.382;2022-07-04T05:13:32;15.80;74.30
21338;DHT22;10827;50.878;4.382;2022-07-04T05:15:59;16.10;66.70
21338;DHT22;10827;50.878;4.382;2022-07-04T05:18:26;16.00;45.30
21338;DHT22;10827;50.878;4.382;2022-07-04T05:20:52;16.00;61.90
21338;DHT22;10827;50.878;4.382;2022-07-04T05:23:19;15.80;69.70
21338;DHT22;10827;50.878;4.382;2022-07-04T05:25:44;15.60;79.70
21338;DHT22;10827;50.878;4.382;2022-07-04T05:30:36;15.50;87.70
21338;DHT22;10827;50.878;4.382;2022-07-04T05:33:02;15.70;83.10
21338;DHT22;10827;50.878;4.382;2022-07-04T05:35:27;15.60;84.30
21338;DHT22;10827;50.878;4.382;2022-07-04T05:37:54;15.60;70.60
21338;DHT22;10827;50.878;4.382;2022-07-04T05:42:49;15.90;87.10
21338;DHT22;10827;50.878;4.382;2022-07-04T05:47:41;15.40;91.70
21338;DHT22;10827;50.878;4.382;2022-07-04T05:50:07;15.50;72.50
21338;DHT22;10827;50.878;4.382;2022-07-04T05:52:33;15.60;88.10
21338;DHT22;10827;50.878;4.382;2022-07-04T05:54:59;15.70;73.30
21338;DHT22;10827;50.878;4.382;2022-07-04T05:57:24;15.60;87.60
21338;DHT22;10827;50.878;4.382;2022-07-04T05:59:50;15.80;90.50
21338;DHT22;10827;50.878;4.382;2022-07-04T06:02:16;15.90;61.50
21338;DHT22;10827;50.878;4.382;2022-07-04T06:07:11;15.90;72.90
21338;DHT22;10827;50.878;4.382;2022-07-04T06:12:06;16.20;71.60
21338;DHT22;10827;50.878;4.382;2022-07-04T06:14:32;16.50;63.30
21338;DHT22;10827;50.878;4.382;2022-07-04T06:19:24;16.40;60.20
21338;DHT22;10827;50.878;4.382;2022-07-04T06:21:49;16.30;53.80
21338;DHT22;10827;50.878;4.382;2022-07-04T06:24:15;16.70;52.60
21338;DHT22;10827;50.878;4.382;2022-07-04T06:26:41;16.40;49.20
21338;DHT22;10827;50.878;4.382;2022-07-04T06:29:07;16.40;50.60
21338;DHT22;10827;50.878;4.382;2022-07-04T06:31:33;16.30;52.40
21338;DHT22;10827;50.878;4.382;2022-07-04T06:36:45;16.70;29.60
21338;DHT22;10827;50.878;4.382;2022-07-04T06:39:10;16.60;41.30
21338;DHT22;10827;50.878;4.382;2022-07-04T06:41:36;16.60;45.90
21338;DHT22;10827;50.878;4.382;2022-07-04T06:51:22;17.10;29.20
21338;DHT22;10827;50.878;4.382;2022-07-04T06:53:48;17.00;28.40
21338;DHT22;10827;50.878;4.382;2022-07-04T06:56:14;17.10;33.00
21338;DHT22;10827;50.878;4.382;2022-07-04T06:58:40;17.00;5.90
21338;DHT22;10827;50.878;4.382;2022-07-04T07:03:32;17.10;15.30
21338;DHT22;10827;50.878;4.382;2022-07-04T07:05:57;17.30;6.00
21338;DHT22;10827;50.878;4.382;2022-07-04T07:08:24;17.40;3.80
21338;DHT22;10827;50.878;4.382;2022-07-04T07:10:49;17.30;8.90
21338;DHT22;10827;50.878;4.382;2022-07-04T07:15:42;18.00;1.00
21338;DHT22;10827;50.878;4.382;2022-07-04T07:20:34;18.00;1.00
21338;DHT22;10827;50.878;4.382;2022-07-04T07:23:03;17.90;1.00
21338;DHT22;10827;50.878;4.382;2022-07-04T07:25:30;17.90;1.00
21338;DHT22;10827;50.878;4.382;2022-07-04T07:27:56;17.90;1.00
21338;DHT22;10827;50.878;4.382;2022-07-04T07:30:23;18.00;1.00
21338;DHT22;10827;50.878;4.382;2022-07-04T07:37:41;18.00;1.00
21338;DHT22;10827;50.878;4.382;2022-07-04T07:40:08;18.10;1.00
21338;DHT22;10827;50.878;4.382;2022-07-04T07:42:35;18.30;1.00
21338;DHT22;10827;50.878;4.382;2022-07-04T07:45:01;18.70;1.00
21338;DHT22;10827;50.878;4.382;2022-07-04T07:47:26;19.10;1.00
21338;DHT22;10827;50.878;4.382;2022-07-04T07:49:52;19.00;1.00
21338;DHT22;10827;50.878;4.382;2022-07-04T07:52:18;18.90;1.00
21338;DHT22;10827;50.878;4.382;2022-07-04T07:54:44;18.80;1.00
21338;DHT22;10827;50.878;4.382;2022-07-04T07:59:35;18.90;1.00
21338;DHT22;10827;50.878;4.382;2022-07-04T08:04:27;18.90;1.00
21338;DHT22;10827;50.878;4.382;2022-07-04T08:07:11;18.80;1.00
21338;DHT22;10827;50.878;4.382;2022-07-04T08:09:40;18.80;1.00
21338;DHT22;10827;50.878;4.382;2022-07-04T08:12:06;18.80;1.00
21338;DHT22;10827;50.878;4.382;2022-07-04T08:14:34;18.90;1.00
21338;DHT22;10827;50.878;4.382;2022-07-04T08:17:01;18.70;1.00
21338;DHT22;10827;50.878;4.382;2022-07-04T08:19:27;18.90;1.00
21338;DHT22;10827;50.878;4.382;2022-07-04T08:21:53;18.90;1.00
21338;DHT22;10827;50.878;4.382;2022-07-04T08:24:20;19.20;1.00
21338;DHT22;10827;50.878;4.382;2022-07-04T08:26:46;19.30;1.00
21338;DHT22;10827;50.878;4.382;2022-07-04T08:29:13;19.40;1.00
21338;DHT22;10827;50.878;4.382;2022-07-04T08:31:39;19.40;1.00
21338;DHT22;10827;50.878;4.382;2022-07-04T08:36:32;19.60;1.00
21338;DHT22;10827;50.878;4.382;2022-07-04T08:38:57;19.30;1.00
21338;DHT22;10827;50.878;4.382;2022-07-04T08:41:23;19.40;1.00
21338;DHT22;10827;50.878;4.382;2022-07-04T08:43:49;19.50;1.00
21338;DHT22;10827;50.878;4.382;2022-07-04T08:46:16;19.50;1.00
21338;DHT22;10827;50.878;4.382;2022-07-04T08:48:50;19.50;1.00
21338;DHT22;10827;50.878;4.382;2022-07-04T08:51:23;19.40;1.00
21338;DHT22;10827;50.878;4.382;2022-07-04T08:53:56;19.60;1.00
21338;DHT22;10827;50.878;4.382;2022-07-04T08:56:22;19.70;1.00
21338;DHT22;10827;50.878;4.382;2022-07-04T08:59:07;19.90;1.00
21338;DHT22;10827;50.878;4.382;2022-07-04T09:01:34;20.10;1.00
21338;DHT22;10827;50.878;4.382;2022-07-04T09:04:00;20.90;1.00
21338;DHT22;10827;50.878;4.382;2022-07-04T09:06:27;20.30;1.00
21338;DHT22;10827;50.878;4.382;2022-07-04T09:08:54;20.30;1.00
21338;DHT22;10827;50.878;4.382;2022-07-04T09:11:20;20.40;1.00
21338;DHT22;10827;50.878;4.382;2022-07-04T09:16:12;20.30;1.00
21338;DHT22;10827;50.878;4.382;2022-07-04T09:21:06;20.20;1.00
21338;DHT22;10827;50.878;4.382;2022-07-04T09:23:41;20.10;1.00
21338;DHT22;10827;50.878;4.382;2022-07-04T09:28:34;20.20;1.00
21338;DHT22;10827;50.878;4.382;2022-07-04T09:31:01;20.20;1.00
21338;DHT22;10827;50.878;4.382;2022-07-04T09:33:48;20.40;1.00
21338;DHT22;10827;50.878;4.382;2022-07-04T09:36:18;20.20;1.00
21338;DHT22;10827;50.878;4.382;2022-07-04T09:38:44;20.70;1.00
21338;DHT22;10827;50.878;4.382;2022-07-04T09:41:10;20.60;1.00
21338;DHT22;10827;50.878;4.382;2022-07-04T09:44:04;20.80;1.00
21338;DHT22;10827;50.878;4.382;2022-07-04T09:46:31;20.50;1.00
21338;DHT22;10827;50.878;4.382;2022-07-04T09:51:45;20.10;1.00
21338;DHT22;10827;50.878;4.382;2022-07-04T09:56:57;20.70;1.00
21338;DHT22;10827;50.878;4.382;2022-07-04T09:59:24;20.80;1.00
21338;DHT22;10827;50.878;4.382;2022-07-04T10:01:50;20.70;1.00
21338;DHT22;10827;50.878;4.382;2022-07-04T10:04:16;20.40;1.00
21338;DHT22;10827;50.878;4.382;2022-07-04T10:06:44;20.60;1.00
21338;DHT22;10827;50.878;4.382;2022-07-04T10:09:15;20.70;1.00
21338;DHT22;10827;50.878;4.382;2022-07-04T10:11:42;21.20;1.00
21338;DHT22;10827;50.878;4.382;2022-07-04T10:14:10;21.10;1.00
21338;DHT22;10827;50.878;4.382;2022-07-04T10:16:39;21.80;1.00
21338;DHT22;10827;50.878;4.382;2022-07-04T10:19:06;21.50;1.00
21338;DHT22;10827;50.878;4.382;2022-07-04T10:21:32;21.60;99.90
21338;DHT22;10827;50.878;4.382;2022-07-04T10:26:27;21.70;99.90
21338;DHT22;10827;50.878;4.382;2022-07-04T10:28:53;22.30;1.00
21338;DHT22;10827;50.878;4.382;2022-07-04T10:31:21;21.90;99.90
21338;DHT22;10827;50.878;4.382;2022-07-04T10:33:47;21.60;1.00
21338;DHT22;10827;50.878;4.382;2022-07-04T10:36:18;21.60;99.90
21338;DHT22;10827;50.878;4.382;2022-07-04T10:38:50;21.80;1.00
21338;DHT22;10827;50.878;4.382;2022-07-04T10:41:17;21.80;1.00
21338;DHT22;10827;50.878;4.382;2022-07-04T10:43:55;22.10;1.00
21338;DHT22;10827;50.878;4.382;2022-07-04T10:46:33;21.80;99.90
21338;DHT22;10827;50.878;4.382;2022-07-04T10:49:00;21.90;1.00
21338;DHT22;10827;50.878;4.382;2022-07-04T10:51:55;21.40;99.90
21338;DHT22;10827;50.878;4.382;2022-07-04T10:54:33;21.80;19.20
21338;DHT22;10827;50.878;4.382;2022-07-04T10:57:09;21.70;99.90
21338;DHT22;10827;50.878;4.382;2022-07-04T10:59:36;21.60;99.90
21338;DHT22;10827;50.878;4.382;2022-07-04T11:04:48;21.60;1.00
21338;DHT22;10827;50.878;4.382;2022-07-04T11:07:15;21.60;99.90
21338;DHT22;10827;50.878;4.382;2022-07-04T11:09:42;21.50;99.90
21338;DHT22;10827;50.878;4.382;2022-07-04T11:12:09;22.00;27.80
21338;DHT22;10827;50.878;4.382;2022-07-04T11:14:48;22.20;1.00
21338;DHT22;10827;50.878;4.382;2022-07-04T11:19:44;23.30;99.90
21338;DHT22;10827;50.878;4.382;2022-07-04T11:22:10;22.60;99.90
21338;DHT22;10827;50.878;4.382;2022-07-04T11:24:37;22.60;1.00
21338;DHT22;10827;50.878;4.382;2022-07-04T11:27:06;22.20;1.00
21338;DHT22;10827;50.878;4.382;2022-07-04T11:31:59;22.00;1.00
21338;DHT22;10827;50.878;4.382;2022-07-04T11:34:31;21.90;1.00
21338;DHT22;10827;50.878;4.382;2022-07-04T11:39:23;22.00;1.00
21338;DHT22;10827;50.878;4.382;2022-07-04T11:41:53;22.20;99.90
21338;DHT22;10827;50.878;4.382;2022-07-04T11:44:39;22.20;1.00
21338;DHT22;10827;50.878;4.382;2022-07-04T11:47:32;22.80;99.90
21338;DHT22;10827;50.878;4.382;2022-07-04T11:50:05;22.40;1.00
21338;DHT22;10827;50.878;4.382;2022-07-04T11:52:40;22.60;1.00
21338;DHT22;10827;50.878;4.382;2022-07-04T11:55:12;22.80;99.90
21338;DHT22;10827;50.878;4.382;2022-07-04T11:57:46;22.80;99.90
21338;DHT22;10827;50.878;4.382;2022-07-04T12:00:16;22.90;99.90
21338;DHT22;10827;50.878;4.382;2022-07-04T12:02:45;23.20;1.00
21338;DHT22;10827;50.878;4.382;2022-07-04T12:05:11;23.10;1.00
21338;DHT22;10827;50.878;4.382;2022-07-04T12:07:39;23.40;1.00
21338;DHT22;10827;50.878;4.382;2022-07-04T12:10:22;23.40;1.00
21338;DHT22;10827;50.878;4.382;2022-07-04T12:15:35;23.20;1.00
21338;DHT22;10827;50.878;4.382;2022-07-04T12:20:27;23.60;99.90
21338;DHT22;10827;50.878;4.382;2022-07-04T12:22:59;23.90;1.00
21338;DHT22;10827;50.878;4.382;2022-07-04T12:25:31;24.10;1.00
21338;DHT22;10827;50.878;4.382;2022-07-04T12:30:33;24.50;1.00
21338;DHT22;10827;50.878;4.382;2022-07-04T12:33:07;24.10;99.90
21338;DHT22;10827;50.878;4.382;2022-07-04T12:36:06;23.50;1.00
21338;DHT22;10827;50.878;4.382;2022-07-04T12:38:36;23.00;1.00
21338;DHT22;10827;50.878;4.382;2022-07-04T12:41:13;23.60;1.00
21338;DHT22;10827;50.878;4.382;2022-07-04T12:46:07;24.30;1.00
21338;DHT22;10827;50.878;4.382;2022-07-04T12:48:34;24.70;99.90
21338;DHT22;10827;50.878;4.382;2022-07-04T12:51:14;25.40;1.00
21338;DHT22;10827;50.878;4.382;2022-07-04T12:53:41;25.00;99.90
21338;DHT22;10827;50.878;4.382;2022-07-04T12:56:09;24.50;99.90
21338;DHT22;10827;50.878;4.382;2022-07-04T12:58:35;24.80;99.90
21338;DHT22;10827;50.878;4.382;2022-07-04T13:01:01;25.10;99.90
21338;DHT22;10827;50.878;4.382;2022-07-04T13:05:54;25.30;99.90
21338;DHT22;10827;50.878;4.382;2022-07-04T13:08:23;25.60;99.90
21338;DHT22;10827;50.878;4.382;2022-07-04T13:10:48;25.50;1.00
21338;DHT22;10827;50.878;4.382;2022-07-04T13:13:34;25.20;98.50
21338;DHT22;10827;50.878;4.382;2022-07-04T13:16:00;25.50;1.00
21338;DHT22;10827;50.878;4.382;2022-07-04T13:18:26;25.20;99.90
21338;DHT22;10827;50.878;4.382;2022-07-04T13:20:53;25.60;99.90
21338;DHT22;10827;50.878;4.382;2022-07-04T13:23:19;25.20;99.90
21338;DHT22;10827;50.878;4.382;2022-07-04T13:25:45;24.70;1.00
21338;DHT22;10827;50.878;4.382;2022-07-04T13:28:11;24.00;99.90
21338;DHT22;10827;50.878;4.382;2022-07-04T13:30:36;24.40;1.00
21338;DHT22;10827;50.878;4.382;2022-07-04T13:33:03;25.40;23.40
21338;DHT22;10827;50.878;4.382;2022-07-04T13:35:29;25.40;1.00
21338;DHT22;10827;50.878;4.382;2022-07-04T13:37:54;27.50;1.00
21338;DHT22;10827;50.878;4.382;2022-07-04T13:40:20;27.60;1.00
21338;DHT22;10827;50.878;4.382;2022-07-04T13:42:46;27.10;1.00
21338;DHT22;10827;50.878;4.382;2022-07-04T13:45:25;25.50;1.00
21338;DHT22;10827;50.878;4.382;2022-07-04T13:47:51;24.60;1.00
21338;DHT22;10827;50.878;4.382;2022-07-04T13:50:17;24.00;1.00
21338;DHT22;10827;50.878;4.382;2022-07-04T13:52:44;23.70;1.00
21338;DHT22;10827;50.878;4.382;2022-07-04T13:55:09;23.90;99.90
21338;DHT22;10827;50.878;4.382;2022-07-04T13:57:36;24.30;1.00
21338;DHT22;10827;50.878;4.382;2022-07-04T14:00:06;24.40;67.90
21338;DHT22;10827;50.878;4.382;2022-07-04T14:02:33;25.30;99.90
21338;DHT22;10827;50.878;4.382;2022-07-04T14:04:59;26.10;1.00
21338;DHT22;10827;50.878;4.382;2022-07-04T14:07:25;26.20;1.00
21338;DHT22;10827;50.878;4.382;2022-07-04T14:09:52;26.40;99.90
21338;DHT22;10827;50.878;4.382;2022-07-04T14:12:18;26.40;1.00
21338;DHT22;10827;50.878;4.382;2022-07-04T14:14:44;26.20;1.00
21338;DHT22;10827;50.878;4.382;2022-07-04T14:17:10;26.60;47.40
21338;DHT22;10827;50.878;4.382;2022-07-04T14:19:36;26.60;2.10
21338;DHT22;10827;50.878;4.382;2022-07-04T14:22:02;27.00;1.00
21338;DHT22;10827;50.878;4.382;2022-07-04T14:24:28;27.20;1.00
21338;DHT22;10827;50.878;4.382;2022-07-04T14:26:53;27.90;1.00
21338;DHT22;10827;50.878;4.382;2022-07-04T14:29:20;28.20;1.00
21338;DHT22;10827;50.878;4.382;2022-07-04T14:31:46;27.70;1.00
21338;DHT22;10827;50.878;4.382;2022-07-04T14:34:12;27.10;1.00
21338;DHT22;10827;50.878;4.382;2022-07-04T14:36:41;27.10;1.00
21338;DHT22;10827;50.878;4.382;2022-07-04T14:39:07;27.00;1.00
21338;DHT22;10827;50.878;4.382;2022-07-04T14:41:33;26.80;1.00
21338;DHT22;10827;50.878;4.382;2022-07-04T14:43:59;26.60;1.00
21338;DHT22;10827;50.878;4.382;2022-07-04T14:46:26;26.60;1.00
21338;DHT22;10827;50.878;4.382;2022-07-04T14:48:52;26.70;1.00
21338;DHT22;10827;50.878;4.382;2022-07-04T14:51:18;26.80;1.00
21338;DHT22;10827;50.878;4.382;2022-07-04T14:53:43;26.40;1.00
21338;DHT22;10827;50.878;4.382;2022-07-04T14:56:09;26.90;1.00
21338;DHT22;10827;50.878;4.382;2022-07-04T14:58:35;27.00;1.00
21338;DHT22;10827;50.878;4.382;2022-07-04T15:01:01;26.90;1.00
21338;DHT22;10827;50.878;4.382;2022-07-04T15:05:53;26.50;99.90
21338;DHT22;10827;50.878;4.382;2022-07-04T15:08:19;26.50;99.90
21338;DHT22;10827;50.878;4.382;2022-07-04T15:10:45;26.70;99.90
21338;DHT22;10827;50.878;4.382;2022-07-04T15:13:10;27.00;99.90
21338;DHT22;10827;50.878;4.382;2022-07-04T15:15:37;26.70;72.00
21338;DHT22;10827;50.878;4.382;2022-07-04T15:18:03;27.50;1.00
21338;DHT22;10827;50.878;4.382;2022-07-04T15:20:29;27.50;1.00
21338;DHT22;10827;50.878;4.382;2022-07-04T15:23:30;27.70;1.00
21338;DHT22;10827;50.878;4.382;2022-07-04T15:26:14;27.70;1.00
21338;DHT22;10827;50.878;4.382;2022-07-04T15:28:40;29.00;1.00
21338;DHT22;10827;50.878;4.382;2022-07-04T15:31:05;28.10;99.90
21338;DHT22;10827;50.878;4.382;2022-07-04T15:33:31;27.60;1.00
21338;DHT22;10827;50.878;4.382;2022-07-04T15:35:57;27.40;1.00
21338;DHT22;10827;50.878;4.382;2022-07-04T15:38:24;26.70;1.00
21338;DHT22;10827;50.878;4.382;2022-07-04T15:40:50;27.50;1.00
21338;DHT22;10827;50.878;4.382;2022-07-04T15:43:15;28.40;1.00
21338;DHT22;10827;50.878;4.382;2022-07-04T15:45:41;28.40;1.00
21338;DHT22;10827;50.878;4.382;2022-07-04T15:48:07;28.40;1.00
21338;DHT22;10827;50.878;4.382;2022-07-04T15:50:33;28.30;1.00
21338;DHT22;10827;50.878;4.382;2022-07-04T15:52:59;27.70;1.00
21338;DHT22;10827;50.878;4.382;2022-07-04T15:55:24;28.00;99.90
21338;DHT22;10827;50.878;4.382;2022-07-04T15:57:52;28.10;1.00
21338;DHT22;10827;50.878;4.382;2022-07-04T16:00:18;28.10;1.00
21338;DHT22;10827;50.878;4.382;2022-07-04T16:02:44;28.70;1.00
21338;DHT22;10827;50.878;4.382;2022-07-04T16:05:10;29.30;99.90
21338;DHT22;10827;50.878;4.382;2022-07-04T16:07:37;29.80;77.70
21338;DHT22;10827;50.878;4.382;2022-07-04T16:10:03;30.10;99.90
21338;DHT22;10827;50.878;4.382;2022-07-04T16:12:30;30.20;1.00
21338;DHT22;10827;50.878;4.382;2022-07-04T16:14:57;29.80;1.00
21338;DHT22;10827;50.878;4.382;2022-07-04T16:17:23;28.60;99.90
21338;DHT22;10827;50.878;4.382;2022-07-04T16:19:49;28.20;99.90
21338;DHT22;10827;50.878;4.382;2022-07-04T16:22:15;28.80;99.90
21338;DHT22;10827;50.878;4.382;2022-07-04T16:24:41;28.70;1.00
21338;DHT22;10827;50.878;4.382;2022-07-04T16:27:06;29.30;99.90
21338;DHT22;10827;50.878;4.382;2022-07-04T16:29:32;28.90;99.90
21338;DHT22;10827;50.878;4.382;2022-07-04T16:31:58;28.40;99.90
21338;DHT22;10827;50.878;4.382;2022-07-04T16:34:24;27.30;1.00
21338;DHT22;10827;50.878;4.382;2022-07-04T16:36:49;27.00;1.00
21338;DHT22;10827;50.878;4.382;2022-07-04T16:39:15;27.00;59.90
21338;DHT22;10827;50.878;4.382;2022-07-04T16:41:41;26.70;12.10
21338;DHT22;10827;50.878;4.382;2022-07-04T16:46:33;26.10;1.00
21338;DHT22;10827;50.878;4.382;2022-07-04T16:48:59;25.90;1.00
21338;DHT22;10827;50.878;4.382;2022-07-04T16:51:24;26.10;1.00
21338;DHT22;10827;50.878;4.382;2022-07-04T16:53:50;25.90;1.00
21338;DHT22;10827;50.878;4.382;2022-07-04T16:56:16;25.80;1.00
21338;DHT22;10827;50.878;4.382;2022-07-04T16:58:42;25.60;54.30
21338;DHT22;10827;50.878;4.382;2022-07-04T17:01:08;25.40;99.90
21338;DHT22;10827;50.878;4.382;2022-07-04T17:03:34;24.70;1.00
21338;DHT22;10827;50.878;4.382;2022-07-04T17:08:28;24.30;1.00
21338;DHT22;10827;50.878;4.382;2022-07-04T17:10:53;24.40;99.90
21338;DHT22;10827;50.878;4.382;2022-07-04T17:15:46;24.80;1.00
21338;DHT22;10827;50.878;4.382;2022-07-04T17:18:12;25.20;99.90
21338;DHT22;10827;50.878;4.382;2022-07-04T17:20:37;26.00;99.90
21338;DHT22;10827;50.878;4.382;2022-07-04T17:25:34;27.60;99.90
21338;DHT22;10827;50.878;4.382;2022-07-04T17:28:01;27.70;1.00
21338;DHT22;10827;50.878;4.382;2022-07-04T17:32:53;28.40;92.40
21338;DHT22;10827;50.878;4.382;2022-07-04T17:35:19;28.70;1.00
21338;DHT22;10827;50.878;4.382;2022-07-04T17:37:45;28.80;99.90
21338;DHT22;10827;50.878;4.382;2022-07-04T17:40:11;29.70;99.90
21338;DHT22;10827;50.878;4.382;2022-07-04T17:42:37;29.70;1.00
21338;DHT22;10827;50.878;4.382;2022-07-04T17:45:03;30.00;1.00